Terminal Aerodrome Forecast
Issued by NWS Charleston, WV

Current Version | Previous Version | Graphics & Text | Print | Product List | Glossary On
Versions: 1 2 3 4 5 6 7 8 9 10 11 12 13 14 15 16 17 18 19 20 21 22 23 24 25 26
000
FTUS41 KRLX 121000 AAA
TAFPKB
TAF AMD
KPKB 121020Z 1210/1306 VRB03KT 6SM BR BKN025
     FM121200 03004KT 6SM BR OVC015
     FM121500 04005KT P6SM OVC015
     FM121600 04005KT P6SM BKN025
     FM122000 03005KT P6SM SCT030
     FM130200 00000KT P6SM BKN015=

USA.gov is the U.S. government's official web portal to all federal, state and local government web resources and services.